createdAt,value
2023-04-17T00:01:18.584Z,44.03
2023-04-17T00:03:47.446Z,44.18
2023-04-17T00:06:16.453Z,44.32
2023-04-17T00:08:44.992Z,44.15
2023-04-17T00:11:12.952Z,43.81
2023-04-17T00:13:44.161Z,43.71
2023-04-17T00:16:13.678Z,43.71
2023-04-17T00:18:42.883Z,43.45
2023-04-17T00:21:11.059Z,43.32
2023-04-17T00:23:39.649Z,43.14
2023-04-17T00:26:07.648Z,42.96
2023-04-17T00:28:35.638Z,42.94
2023-04-17T00:31:04.604Z,42.81
2023-04-17T00:33:32.839Z,42.99
2023-04-17T00:36:00.840Z,43.45
2023-04-17T00:38:29.418Z,43.09
2023-04-17T00:40:57.412Z,42.73
2023-04-17T00:43:25.496Z,42.14
2023-04-17T00:45:54.028Z,42.09
2023-04-17T00:48:24.208Z,42.29
2023-04-17T00:50:52.178Z,42.37
2023-04-17T00:53:20.555Z,42.03
2023-04-17T00:55:48.598Z,42.28
2023-04-17T00:58:16.880Z,42.42
2023-04-17T01:00:45.435Z,42.62
2023-04-17T01:03:14.527Z,42.52
2023-04-17T01:05:44.754Z,42.64
2023-04-17T01:08:12.668Z,42.47
2023-04-17T01:10:40.821Z,42.51
2023-04-17T01:13:09.574Z,42.72
2023-04-17T01:15:37.958Z,42.49
2023-04-17T01:18:06.844Z,43.45
2023-04-17T01:20:34.928Z,43.47
2023-04-17T01:23:02.919Z,43.60
2023-04-17T01:25:31.409Z,43.43
2023-04-17T01:27:59.319Z,43.17
2023-04-17T01:30:29.244Z,43.19
2023-04-17T01:33:03.688Z,43.02
2023-04-17T01:35:31.663Z,43.24
2023-04-17T01:37:59.983Z,42.89
2023-04-17T01:40:28.752Z,42.75
2023-04-17T01:42:57.449Z,42.76
2023-04-17T01:45:25.344Z,42.62
2023-04-17T01:47:53.984Z,42.78
2023-04-17T01:50:22.370Z,42.95
2023-04-17T01:52:50.708Z,42.85
2023-04-17T01:55:18.700Z,42.62
2023-04-17T01:57:47.598Z,42.47
2023-04-17T02:00:15.943Z,42.33
2023-04-17T02:02:44.367Z,42.31
2023-04-17T02:05:12.420Z,42.09
2023-04-17T02:07:40.855Z,42.15
2023-04-17T02:10:09.609Z,42.40
2023-04-17T02:12:38.248Z,42.32
2023-04-17T02:15:07.148Z,41.87
2023-04-17T02:17:35.682Z,41.27
2023-04-17T02:20:06.949Z,41.52
2023-04-17T02:22:35.037Z,41.97
2023-04-17T02:25:02.962Z,41.96
2023-04-17T02:27:31.252Z,41.83
2023-04-17T02:29:59.154Z,41.76
2023-04-17T02:32:27.145Z,41.48
2023-04-17T02:34:56.251Z,40.95
2023-04-17T02:37:24.206Z,40.89
2023-04-17T02:39:53.996Z,40.77
2023-04-17T02:42:21.900Z,41.21
2023-04-17T02:44:49.799Z,41.92
2023-04-17T02:47:17.815Z,41.45
2023-04-17T02:49:45.908Z,41.67
2023-04-17T02:52:14.081Z,41.52
2023-04-17T02:54:42.253Z,41.77
2023-04-17T02:57:11.000Z,42.24
2023-04-17T02:59:39.051Z,41.77
2023-04-17T03:02:07.070Z,41.53
2023-04-17T03:04:38.760Z,41.63
2023-04-17T03:07:10.537Z,41.69
2023-04-17T03:09:39.839Z,41.22
2023-04-17T03:12:07.907Z,41.23
2023-04-17T03:14:36.011Z,40.78
2023-04-17T03:17:03.870Z,40.69
2023-04-17T03:19:31.936Z,40.17
2023-04-17T03:22:01.740Z,39.87
2023-04-17T03:24:31.716Z,39.44
2023-04-17T03:27:01.133Z,39.11
2023-04-17T03:29:31.430Z,39.45
2023-04-17T03:31:59.355Z,39.22
2023-04-17T03:34:29.131Z,39.16
2023-04-17T03:36:59.372Z,38.76
2023-04-17T03:39:27.409Z,39.28
2023-04-17T03:41:56.059Z,38.93
2023-04-17T03:44:24.050Z,38.38
2023-04-17T03:46:51.946Z,38.27
2023-04-17T03:49:20.088Z,38.06
2023-04-17T03:51:49.988Z,38.24
2023-04-17T03:54:19.604Z,38.10
2023-04-17T03:56:47.707Z,38.49
2023-04-17T03:59:15.833Z,38.42
2023-04-17T04:01:47.407Z,38.15
2023-04-17T04:04:19.355Z,38.00
2023-04-17T04:06:49.503Z,37.79
2023-04-17T04:09:20.356Z,37.43
2023-04-17T04:11:48.341Z,37.19
2023-04-17T04:14:16.784Z,37.42
2023-04-17T04:16:47.131Z,37.12
2023-04-17T04:19:16.327Z,36.63
2023-04-17T04:21:45.152Z,36.24
2023-04-17T04:24:14.486Z,36.56
2023-04-17T04:26:43.483Z,36.07
2023-04-17T04:29:13.964Z,36.04
2023-04-17T04:31:51.115Z,36.44
2023-04-17T04:34:21.771Z,35.83
2023-04-17T04:36:52.707Z,35.20
2023-04-17T04:39:37.978Z,35.03
2023-04-17T04:42:10.086Z,35.22
2023-04-17T04:45:07.906Z,34.97
2023-04-17T04:47:36.937Z,34.80
2023-04-17T04:50:05.776Z,34.78
2023-04-17T04:52:33.967Z,34.54
2023-04-17T04:55:05.905Z,34.30
2023-04-17T04:57:34.254Z,34.08
2023-04-17T05:00:06.433Z,33.97
2023-04-17T05:02:40.135Z,34.18
2023-04-17T05:05:11.166Z,33.80
2023-04-17T05:07:40.409Z,33.60
2023-04-17T05:10:10.980Z,33.18
2023-04-17T05:12:42.489Z,32.73
2023-04-17T05:15:11.392Z,32.60
2023-04-17T05:17:40.156Z,32.42
2023-04-17T05:20:18.937Z,32.48
2023-04-17T05:22:52.388Z,32.12
2023-04-17T05:25:20.835Z,31.68
2023-04-17T05:27:48.830Z,31.75
2023-04-17T05:30:17.834Z,31.45
2023-04-17T05:32:48.647Z,31.36
2023-04-17T05:35:42.573Z,31.10
2023-04-17T05:38:10.782Z,30.84
2023-04-17T05:40:39.025Z,30.49
2023-04-17T05:43:08.693Z,30.41
2023-04-17T05:45:37.119Z,30.18
2023-04-17T05:48:08.423Z,29.98
2023-04-17T05:50:37.539Z,29.48
2023-04-17T05:53:06.089Z,29.47
2023-04-17T05:55:37.736Z,29.56
2023-04-17T05:58:16.851Z,29.75
2023-04-17T06:00:52.554Z,29.50
2023-04-17T06:03:21.355Z,29.55
2023-04-17T06:05:53.251Z,29.06
2023-04-17T06:08:23.757Z,29.21
2023-04-17T06:10:52.628Z,28.82
2023-04-17T06:13:21.984Z,28.57
2023-04-17T06:15:51.588Z,28.87
2023-04-17T06:18:19.629Z,28.55
2023-04-17T06:20:47.686Z,28.68
2023-04-17T06:23:16.013Z,28.66
2023-04-17T06:25:44.338Z,28.39
2023-04-17T06:28:13.508Z,28.41
2023-04-17T06:30:41.516Z,27.54
2023-04-17T06:33:10.071Z,27.21
2023-04-17T06:35:38.369Z,27.06
2023-04-17T06:38:22.187Z,27.46
2023-04-17T06:40:52.153Z,27.32
2023-04-17T06:43:20.847Z,27.81
2023-04-17T06:45:48.989Z,27.34
2023-04-17T06:48:17.555Z,26.80
2023-04-17T06:50:45.906Z,26.13
2023-04-17T06:53:14.265Z,25.71
2023-04-17T06:55:42.221Z,26.12
2023-04-17T06:58:10.237Z,26.31
2023-04-17T07:00:38.180Z,26.17
2023-04-17T07:03:06.409Z,26.24
2023-04-17T07:05:35.751Z,25.87
2023-04-17T07:08:03.796Z,25.59
2023-04-17T07:10:31.970Z,24.98
2023-04-17T07:13:00.296Z,24.73
2023-04-17T07:15:31.701Z,24.51
2023-04-17T07:18:00.088Z,24.52
2023-04-17T07:20:28.292Z,24.33
2023-04-17T07:22:56.775Z,24.42
2023-04-17T07:25:24.922Z,24.55
2023-04-17T07:27:53.702Z,24.84
2023-04-17T07:30:21.646Z,25.17
2023-04-17T07:32:49.655Z,24.89
2023-04-17T07:35:17.663Z,25.01
2023-04-17T07:37:45.692Z,24.23
2023-04-17T07:40:14.730Z,24.23
2023-04-17T07:42:42.666Z,24.48
2023-04-17T07:45:11.647Z,24.76
2023-04-17T07:47:39.600Z,24.79
2023-04-17T07:50:07.964Z,24.67
2023-04-17T07:52:36.082Z,24.32
2023-04-17T07:55:04.373Z,24.56
2023-04-17T07:57:33.065Z,24.29
2023-04-17T08:00:01.119Z,24.48
2023-04-17T08:02:29.562Z,24.54
2023-04-17T08:04:58.467Z,23.73
2023-04-17T08:07:27.181Z,23.82
2023-04-17T08:09:55.600Z,23.53
2023-04-17T08:12:23.586Z,23.77
2023-04-17T08:14:51.671Z,23.57
2023-04-17T08:17:23.000Z,23.52
2023-04-17T08:19:53.718Z,23.75
2023-04-17T08:22:24.254Z,24.08
2023-04-17T08:24:57.509Z,24.11
2023-04-17T08:27:25.834Z,23.65
2023-04-17T08:29:54.011Z,23.00
2023-04-17T08:32:22.274Z,22.44
2023-04-17T08:34:50.251Z,22.74
2023-04-17T08:37:18.151Z,22.35
2023-04-17T08:39:46.098Z,21.89
2023-04-17T08:42:18.401Z,21.42
2023-04-17T08:44:47.061Z,21.56
2023-04-17T08:47:20.162Z,21.14
2023-04-17T08:49:50.601Z,20.90
2023-04-17T08:52:18.727Z,21.16
2023-04-17T08:54:48.884Z,21.27
2023-04-17T08:57:18.726Z,20.58
2023-04-17T08:59:47.030Z,20.54
2023-04-17T09:02:15.300Z,20.24
2023-04-17T09:04:44.632Z,20.45
2023-04-17T09:07:13.601Z,20.99
2023-04-17T09:09:49.156Z,21.19
2023-04-17T09:12:18.378Z,21.11
2023-04-17T09:14:46.405Z,22.08
2023-04-17T09:17:17.286Z,22.11
2023-04-17T09:20:08.969Z,22.21
2023-04-17T09:22:37.717Z,22.54
2023-04-17T09:25:19.534Z,22.81
2023-04-17T09:27:47.582Z,22.79
2023-04-17T09:30:15.821Z,22.77
2023-04-17T09:32:44.102Z,23.22
2023-04-17T09:35:27.816Z,23.30
2023-04-17T09:37:58.854Z,23.33
2023-04-17T09:40:28.709Z,22.93
2023-04-17T09:43:09.451Z,23.07
2023-04-17T09:45:41.798Z,23.20
2023-04-17T09:48:12.278Z,23.12
2023-04-17T09:50:40.308Z,22.74
2023-04-17T09:53:08.355Z,22.55
2023-04-17T09:55:38.155Z,22.15
2023-04-17T09:58:07.559Z,22.14
2023-04-17T10:00:36.899Z,22.03
2023-04-17T10:03:05.110Z,22.01
2023-04-17T10:05:33.392Z,21.67
2023-04-17T10:08:01.508Z,21.53
2023-04-17T10:10:33.962Z,21.69
2023-04-17T10:13:03.761Z,21.52
2023-04-17T10:15:31.777Z,21.75
2023-04-17T10:18:20.650Z,21.23
2023-04-17T10:20:49.649Z,21.09
2023-04-17T10:23:26.420Z,20.95
2023-04-17T10:26:25.617Z,20.70
2023-04-17T10:28:54.384Z,20.48
2023-04-17T10:31:23.724Z,20.19
2023-04-17T10:33:55.136Z,20.29
2023-04-17T10:36:38.248Z,20.20
2023-04-17T10:39:13.170Z,19.42
2023-04-17T10:42:02.062Z,19.53
2023-04-17T10:44:34.568Z,19.04
2023-04-17T10:47:10.036Z,19.84
2023-04-17T10:49:52.098Z,19.43
2023-04-17T10:52:41.870Z,19.45
2023-04-17T10:55:16.081Z,19.80
2023-04-17T10:57:56.488Z,19.27
2023-04-17T11:00:38.126Z,18.91
2023-04-17T11:03:06.721Z,18.36
2023-04-17T11:05:36.039Z,18.17
2023-04-17T11:08:04.874Z,18.12
2023-04-17T11:10:35.772Z,18.05
2023-04-17T11:13:03.757Z,17.87
2023-04-17T11:15:34.441Z,17.77
2023-04-17T11:18:03.082Z,17.82
2023-04-17T11:20:32.366Z,17.85
2023-04-17T11:23:04.172Z,18.22
2023-04-17T11:25:34.392Z,18.22
2023-04-17T11:28:05.335Z,18.36
2023-04-17T11:30:38.191Z,18.27
2023-04-17T11:33:08.038Z,17.27
2023-04-17T11:38:47.359Z,18.59
2023-04-17T11:41:15.751Z,16.81
2023-04-17T11:43:44.553Z,16.67
2023-04-17T11:46:12.502Z,16.21
2023-04-17T11:48:40.939Z,16.18
2023-04-17T11:51:09.166Z,16.14
2023-04-17T11:53:37.245Z,16.50
2023-04-17T11:56:18.362Z,16.51
2023-04-17T11:58:49.246Z,16.60
2023-04-17T12:01:18.075Z,16.44
2023-04-17T12:03:47.904Z,16.12
2023-04-17T12:06:16.330Z,16.01
2023-04-17T12:08:50.281Z,15.56
2023-04-17T12:11:32.752Z,16.13
2023-04-17T12:14:02.432Z,16.09
2023-04-17T12:16:31.560Z,15.55
2023-04-17T12:18:59.596Z,15.39
2023-04-17T12:21:27.517Z,15.69
2023-04-17T12:23:55.584Z,15.77
2023-04-17T12:26:25.285Z,16.45
2023-04-17T12:28:53.226Z,16.63
2023-04-17T12:31:21.189Z,16.90
2023-04-17T12:33:49.151Z,17.25
2023-04-17T12:36:17.067Z,17.60
2023-04-17T12:38:45.225Z,17.97
2023-04-17T12:41:13.147Z,17.73
2023-04-17T12:43:41.025Z,17.24
2023-04-17T12:46:08.984Z,17.21
2023-04-17T12:48:37.782Z,17.08
2023-04-17T12:51:06.095Z,17.15
2023-04-17T12:53:34.173Z,17.03
2023-04-17T12:56:02.175Z,16.74
2023-04-17T12:58:30.370Z,17.15
2023-04-17T13:00:58.260Z,17.18
2023-04-17T13:03:26.642Z,16.88
2023-04-17T13:05:54.754Z,16.95
2023-04-17T13:08:22.644Z,16.95
2023-04-17T13:10:51.608Z,17.19
2023-04-17T13:13:19.842Z,16.80
2023-04-17T13:15:48.573Z,16.99
2023-04-17T13:18:16.568Z,17.00
2023-04-17T13:20:44.680Z,17.31
2023-04-17T13:23:14.419Z,17.54
2023-04-17T13:25:42.480Z,16.58
2023-04-17T13:28:12.142Z,16.20
2023-04-17T13:30:40.131Z,16.72
2023-04-17T13:33:08.616Z,17.05
2023-04-17T13:35:36.822Z,17.16
2023-04-17T13:38:04.717Z,17.14
2023-04-17T13:40:32.628Z,17.42
2023-04-17T13:43:00.577Z,17.44
2023-04-17T13:45:28.610Z,17.44
2023-04-17T13:47:56.551Z,17.49
2023-04-17T13:50:24.524Z,17.69
2023-04-17T13:52:52.457Z,17.60
2023-04-17T13:55:20.635Z,17.63
2023-04-17T13:57:48.784Z,17.46
2023-04-17T14:00:18.431Z,17.43
2023-04-17T14:02:46.576Z,17.58
2023-04-17T14:05:14.739Z,17.61
2023-04-17T14:07:44.414Z,17.92
2023-04-17T14:10:12.455Z,17.95
2023-04-17T14:12:41.127Z,17.82
2023-04-17T14:15:09.673Z,17.70
2023-04-17T14:17:41.055Z,17.50
2023-04-17T14:20:10.799Z,17.44
2023-04-17T14:22:39.124Z,17.64
2023-04-17T14:25:07.326Z,17.22
2023-04-17T14:27:36.353Z,17.28
2023-04-17T14:30:04.851Z,17.26
2023-04-17T14:32:33.572Z,17.37
2023-04-17T14:35:01.763Z,17.65
2023-04-17T14:37:29.993Z,17.25
2023-04-17T14:39:57.931Z,17.03
2023-04-17T14:42:25.932Z,17.14
2023-04-17T14:44:53.839Z,17.53
2023-04-17T14:47:22.005Z,17.47
2023-04-17T14:49:49.992Z,17.62
2023-04-17T14:52:17.949Z,17.73
2023-04-17T14:54:45.831Z,17.83
2023-04-17T14:57:13.741Z,18.20
2023-04-17T14:59:41.839Z,18.18
2023-04-17T15:02:10.646Z,18.40
2023-04-17T15:04:39.051Z,18.40
2023-04-17T15:07:06.895Z,18.76
2023-04-17T15:09:34.914Z,19.10
2023-04-17T15:12:03.105Z,18.96
2023-04-17T15:14:31.627Z,18.73
2023-04-17T15:17:02.441Z,18.86
2023-04-17T15:19:30.635Z,18.66
2023-04-17T15:21:58.563Z,18.43
2023-04-17T15:24:26.688Z,18.38
2023-04-17T15:26:54.885Z,18.37
2023-04-17T15:29:23.197Z,18.47
2023-04-17T15:31:52.766Z,18.46
2023-04-17T15:34:20.856Z,18.59
2023-04-17T15:36:48.964Z,18.67
2023-04-17T15:39:17.376Z,18.97
2023-04-17T15:41:45.624Z,19.60
2023-04-17T15:44:13.699Z,19.54
2023-04-17T15:46:41.686Z,19.29
2023-04-17T15:49:09.695Z,19.13
2023-04-17T15:51:39.035Z,18.85
2023-04-17T15:54:11.967Z,19.09
2023-04-17T15:56:40.284Z,19.56
2023-04-17T15:59:08.280Z,19.16
2023-04-17T16:01:36.349Z,19.52
2023-04-17T16:04:04.461Z,20.36
2023-04-17T16:06:32.695Z,20.30
2023-04-17T16:09:01.194Z,20.56
2023-04-17T16:11:29.329Z,20.58
2023-04-17T16:13:57.386Z,20.70
2023-04-17T16:16:25.511Z,20.64
2023-04-17T16:18:53.478Z,20.53
2023-04-17T16:21:21.332Z,20.40
2023-04-17T16:23:49.705Z,20.73
2023-04-17T16:26:17.686Z,21.11
2023-04-17T16:28:46.497Z,21.02
2023-04-17T16:31:16.906Z,20.88
2023-04-17T16:33:45.423Z,20.79
2023-04-17T16:36:13.356Z,20.75
2023-04-17T16:38:41.312Z,21.20
2023-04-17T16:41:09.658Z,21.59
2023-04-17T16:43:37.642Z,21.53
2023-04-17T16:46:18.439Z,21.51
2023-04-17T16:48:50.963Z,21.63
2023-04-17T16:51:23.882Z,21.41
2023-04-17T16:53:51.917Z,21.84
2023-04-17T16:56:19.865Z,22.20
2023-04-17T16:58:47.713Z,22.38
2023-04-17T17:01:15.734Z,22.46
2023-04-17T17:03:44.956Z,22.17
2023-04-17T17:06:13.142Z,21.99
2023-04-17T17:08:47.633Z,21.96
2023-04-17T17:11:16.612Z,21.58
2023-04-17T17:13:48.720Z,21.32
2023-04-17T17:16:17.048Z,21.95
2023-04-17T17:18:45.620Z,21.96
2023-04-17T17:21:14.128Z,21.87
2023-04-17T17:23:42.173Z,22.42
2023-04-17T17:26:10.058Z,22.48
2023-04-17T17:28:38.395Z,22.77
2023-04-17T17:31:10.918Z,22.77
2023-04-17T17:33:38.826Z,22.91
2023-04-17T17:36:08.961Z,23.43
2023-04-17T17:38:36.864Z,23.20
2023-04-17T17:41:04.935Z,23.57
2023-04-17T17:43:33.471Z,23.29
2023-04-17T17:46:01.798Z,24.38
2023-04-17T17:48:29.983Z,24.70
2023-04-17T17:50:58.051Z,24.74
2023-04-17T17:53:27.207Z,24.74
2023-04-17T17:55:55.845Z,24.52
2023-04-17T17:58:23.860Z,24.21
2023-04-17T18:00:51.823Z,24.11
2023-04-17T18:03:20.783Z,24.39
2023-04-17T18:05:48.996Z,24.52
2023-04-17T18:08:17.122Z,24.79
2023-04-17T18:10:45.004Z,24.70
2023-04-17T18:13:12.928Z,24.70
2023-04-17T18:15:40.998Z,24.76
2023-04-17T18:18:09.190Z,24.62
2023-04-17T18:20:39.154Z,24.48
2023-04-17T18:23:07.302Z,24.49
2023-04-17T18:25:39.254Z,24.55
2023-04-17T18:28:07.576Z,24.59
2023-04-17T18:30:36.579Z,24.42
2023-04-17T18:33:05.041Z,24.07
2023-04-17T18:35:33.014Z,23.78
2023-04-17T18:38:01.138Z,23.58
2023-04-17T18:40:30.726Z,23.81
2023-04-17T18:42:58.671Z,23.80
2023-04-17T18:45:27.984Z,23.43
2023-04-17T18:47:56.189Z,23.39
2023-04-17T18:50:26.933Z,23.22
2023-04-17T18:52:57.260Z,23.64
2023-04-17T18:55:25.373Z,23.60
2023-04-17T18:57:53.572Z,23.54
2023-04-17T19:00:21.697Z,23.80
2023-04-17T19:02:50.133Z,24.42
2023-04-17T19:05:20.573Z,24.15
2023-04-17T19:07:49.141Z,23.93
2023-04-17T19:10:17.502Z,23.42
2023-04-17T19:12:46.806Z,23.42
2023-04-17T19:15:17.551Z,23.45
2023-04-17T19:17:45.787Z,23.41
2023-04-17T19:20:15.852Z,24.15
2023-04-17T19:22:43.816Z,23.50
2023-04-17T19:25:12.016Z,23.14
2023-04-17T19:27:40.394Z,23.30
2023-04-17T19:30:09.207Z,23.31
2023-04-17T19:32:40.131Z,23.55
2023-04-17T19:35:08.615Z,23.20
2023-04-17T19:37:36.710Z,23.05
2023-04-17T19:40:14.116Z,23.70
2023-04-17T19:42:49.774Z,23.73
2023-04-17T19:45:17.956Z,23.74
2023-04-17T19:47:46.212Z,23.32
2023-04-17T19:50:14.258Z,23.01
2023-04-17T19:52:43.359Z,22.88
2023-04-17T19:55:11.527Z,22.77
2023-04-17T19:57:41.620Z,22.84
2023-04-17T20:00:10.829Z,22.67
2023-04-17T20:02:41.956Z,22.85
2023-04-17T20:05:10.534Z,23.03
2023-04-17T20:07:39.084Z,23.02
2023-04-17T20:10:07.799Z,23.21
2023-04-17T20:12:36.157Z,23.19
2023-04-17T20:15:04.431Z,23.55
2023-04-17T20:17:32.512Z,23.20
2023-04-17T20:20:00.507Z,23.26
2023-04-17T20:22:28.380Z,23.47
2023-04-17T20:24:58.221Z,23.10
2023-04-17T20:27:26.612Z,23.74
2023-04-17T20:29:54.595Z,23.52
2023-04-17T20:32:23.288Z,23.76
2023-04-17T20:34:51.285Z,23.94
2023-04-17T20:37:19.920Z,23.54
2023-04-17T20:39:48.877Z,23.66
2023-04-17T20:42:16.917Z,23.04
2023-04-17T20:44:44.819Z,23.18
2023-04-17T20:47:12.717Z,23.06
2023-04-17T20:49:40.718Z,22.57
2023-04-17T20:52:08.682Z,22.57
2023-04-17T20:54:37.282Z,22.60
2023-04-17T20:57:05.389Z,22.53
2023-04-17T20:59:33.463Z,22.47
2023-04-17T21:02:01.472Z,22.25
2023-04-17T21:04:29.603Z,22.92
2023-04-17T21:06:57.730Z,23.23
2023-04-17T21:09:27.835Z,22.81
2023-04-17T21:11:55.795Z,22.92
2023-04-17T21:14:23.737Z,22.87
2023-04-17T21:16:54.517Z,23.38
2023-04-17T21:19:24.325Z,24.01
2023-04-17T21:21:55.696Z,23.87
2023-04-17T21:24:24.082Z,24.14
2023-04-17T21:26:58.264Z,23.82
2023-04-17T21:29:27.437Z,23.23
2023-04-17T21:31:55.792Z,23.40
2023-04-17T21:34:24.448Z,23.41
2023-04-17T21:36:54.887Z,23.40
2023-04-17T21:39:22.868Z,23.56
2023-04-17T21:41:50.793Z,23.68
2023-04-17T21:44:18.928Z,23.90
2023-04-17T21:46:46.971Z,23.93
2023-04-17T21:49:14.983Z,23.59
2023-04-17T21:51:42.932Z,24.16
2023-04-17T21:54:11.135Z,23.89
2023-04-17T21:56:39.162Z,24.18
2023-04-17T21:59:07.256Z,24.09
2023-04-17T22:01:35.230Z,23.96
2023-04-17T22:04:03.260Z,24.02
2023-04-17T22:06:35.295Z,23.93
2023-04-17T22:09:04.289Z,23.66
2023-04-17T22:11:32.521Z,24.23
2023-04-17T22:14:00.870Z,24.60
2023-04-17T22:16:29.295Z,24.52
2023-04-17T22:18:57.260Z,24.35
2023-04-17T22:21:27.069Z,24.03
2023-04-17T22:23:55.063Z,23.72
2023-04-17T22:26:22.950Z,23.72
2023-04-17T22:28:50.855Z,24.37
2023-04-17T22:31:18.802Z,24.01
2023-04-17T22:33:46.767Z,23.87
2023-04-17T22:36:14.746Z,23.97
2023-04-17T22:38:42.779Z,23.79
2023-04-17T22:41:10.955Z,23.97
2023-04-17T22:43:39.117Z,23.88
2023-04-17T22:46:07.079Z,24.11
2023-04-17T22:48:35.362Z,24.31
2023-04-17T22:51:03.814Z,24.07
2023-04-17T22:53:32.047Z,23.81
2023-04-17T22:56:03.773Z,23.86
2023-04-17T22:58:33.496Z,24.16
2023-04-17T23:01:01.521Z,24.32
2023-04-17T23:03:29.933Z,24.33
2023-04-17T23:05:57.866Z,24.24
2023-04-17T23:08:25.944Z,24.01
2023-04-17T23:10:58.789Z,24.09
2023-04-17T23:13:27.714Z,24.02
2023-04-17T23:15:55.720Z,24.14
2023-04-17T23:18:23.742Z,24.07
2023-04-17T23:20:51.640Z,24.25
2023-04-17T23:23:23.631Z,24.08
2023-04-17T23:25:52.221Z,24.19
2023-04-17T23:28:20.623Z,24.59
2023-04-17T23:30:48.612Z,24.88
2023-04-17T23:33:17.012Z,24.96
2023-04-17T23:35:45.087Z,24.67
2023-04-17T23:38:12.965Z,24.31
2023-04-17T23:40:41.588Z,24.36
2023-04-17T23:43:09.544Z,24.23
2023-04-17T23:45:37.551Z,24.56
2023-04-17T23:48:06.337Z,24.61
2023-04-17T23:50:34.412Z,24.69
2023-04-17T23:55:17.769Z,28.53
2023-04-17T23:57:45.952Z,25.92
